createdAt,value
2023-01-15T00:00:45.686Z,0.60
2023-01-15T00:03:17.426Z,0.90
2023-01-15T00:05:48.718Z,0.63
2023-01-15T00:08:20.063Z,0.53
2023-01-15T00:10:51.347Z,0.50
2023-01-15T00:13:22.966Z,0.40
2023-01-15T00:15:54.396Z,0.63
2023-01-15T00:18:25.692Z,0.80
2023-01-15T00:21:04.777Z,0.83
2023-01-15T00:23:54.826Z,0.90
2023-01-15T00:26:48.464Z,0.67
2023-01-15T00:29:20.526Z,0.67
2023-01-15T00:31:58.535Z,0.90
2023-01-15T00:34:31.062Z,1.13
2023-01-15T00:37:04.426Z,0.73
2023-01-15T00:39:35.820Z,0.70
2023-01-15T00:42:07.333Z,1.63
2023-01-15T00:44:38.782Z,0.90
2023-01-15T00:47:14.686Z,0.80
2023-01-15T00:49:46.058Z,0.80
2023-01-15T00:52:17.426Z,0.97
2023-01-15T00:54:48.769Z,0.90
2023-01-15T00:57:20.102Z,1.33
2023-01-15T00:59:51.484Z,1.20
2023-01-15T01:02:22.931Z,0.83
2023-01-15T01:04:54.284Z,0.90
2023-01-15T01:07:25.634Z,0.77
2023-01-15T01:09:56.915Z,1.10
2023-01-15T01:12:28.500Z,0.80
2023-01-15T01:14:59.818Z,0.83
2023-01-15T01:17:31.153Z,1.00
2023-01-15T01:20:02.616Z,0.80
2023-01-15T01:22:34.015Z,0.90
2023-01-15T01:25:05.777Z,0.80
2023-01-15T01:27:37.122Z,1.23
2023-01-15T01:30:09.330Z,1.00
2023-01-15T01:32:43.899Z,0.83
2023-01-15T01:35:15.261Z,1.20
2023-01-15T01:37:51.091Z,0.83
2023-01-15T01:40:22.745Z,0.75
2023-01-15T01:42:54.179Z,0.80
2023-01-15T01:45:28.831Z,0.90
2023-01-15T01:48:06.536Z,1.27
2023-01-15T01:50:40.076Z,1.57
2023-01-15T01:53:17.642Z,1.00
2023-01-15T01:55:50.477Z,0.80
2023-01-15T01:58:24.652Z,1.00
2023-01-15T02:00:56.461Z,1.20
2023-01-15T02:03:33.353Z,1.10
2023-01-15T02:06:09.091Z,0.70
2023-01-15T02:08:40.730Z,1.45
2023-01-15T02:11:16.954Z,2.13
2023-01-15T02:17:01.677Z,0.90
2023-01-15T02:19:57.678Z,0.87
2023-01-15T02:22:41.222Z,0.80
2023-01-15T02:25:23.864Z,1.00
2023-01-15T02:28:10.289Z,1.00
2023-01-15T02:30:45.813Z,0.93
2023-01-15T02:33:24.145Z,1.02
2023-01-15T02:36:06.425Z,1.00
2023-01-15T02:38:43.680Z,0.93
2023-01-15T02:41:19.049Z,1.13
2023-01-15T02:43:53.820Z,0.80
2023-01-15T02:46:29.836Z,1.07
2023-01-15T02:49:05.497Z,1.35
2023-01-15T02:51:44.327Z,0.93
2023-01-15T02:54:17.342Z,1.17
2023-01-15T02:56:49.772Z,0.57
2023-01-15T02:59:30.271Z,1.13
2023-01-15T03:02:05.512Z,1.83
2023-01-15T03:04:46.444Z,1.10
2023-01-15T03:07:45.219Z,2.00
2023-01-15T03:10:16.990Z,1.27
2023-01-15T03:13:03.579Z,1.90
2023-01-15T03:16:14.356Z,1.20
2023-01-15T03:18:52.151Z,1.77
2023-01-15T03:21:31.193Z,1.20
2023-01-15T03:24:06.227Z,1.83
2023-01-15T03:26:37.592Z,1.10
2023-01-15T03:29:11.036Z,1.10
2023-01-15T03:31:44.669Z,1.67
2023-01-15T03:34:16.087Z,1.07
2023-01-15T03:36:47.489Z,2.20
2023-01-15T03:39:18.839Z,1.37
2023-01-15T03:42:08.816Z,1.00
2023-01-15T03:44:48.542Z,1.33
2023-01-15T03:47:53.914Z,1.20
2023-01-15T03:50:47.812Z,1.40
2023-01-15T03:53:29.428Z,1.57
2023-01-15T03:56:12.873Z,1.37
2023-01-15T03:58:56.352Z,1.50
2023-01-15T04:01:35.005Z,1.40
2023-01-15T04:04:07.204Z,0.83
2023-01-15T04:06:40.083Z,1.27
2023-01-15T04:09:14.178Z,2.13
2023-01-15T04:11:47.006Z,1.43
2023-01-15T04:14:18.362Z,1.63
2023-01-15T04:16:49.617Z,1.40
2023-01-15T04:19:21.251Z,1.20
2023-01-15T04:21:52.532Z,0.97
2023-01-15T04:24:23.954Z,1.50
2023-01-15T04:26:55.251Z,1.27
2023-01-15T04:29:26.519Z,1.63
2023-01-15T04:31:58.021Z,1.53
2023-01-15T04:34:29.912Z,1.50
2023-01-15T04:37:01.195Z,1.30
2023-01-15T04:39:32.811Z,1.13
2023-01-15T04:42:22.657Z,1.27
2023-01-15T04:44:54.934Z,1.40
2023-01-15T04:47:26.255Z,1.63
2023-01-15T04:49:57.575Z,1.60
2023-01-15T04:52:28.847Z,1.30
2023-01-15T04:55:00.174Z,1.50
2023-01-15T04:57:31.493Z,1.33
2023-01-15T05:00:03.944Z,1.60
2023-01-15T05:02:35.345Z,1.20
2023-01-15T05:05:07.215Z,1.67
2023-01-15T05:07:38.574Z,1.67
2023-01-15T05:10:10.473Z,1.10
2023-01-15T05:12:41.739Z,1.30
2023-01-15T05:15:13.011Z,1.20
2023-01-15T05:17:44.254Z,1.20
2023-01-15T05:20:15.637Z,0.90
2023-01-15T05:22:46.906Z,1.10
2023-01-15T05:25:18.171Z,2.30
2023-01-15T05:27:49.436Z,1.50
2023-01-15T05:30:20.800Z,1.80
2023-01-15T05:32:52.149Z,1.20
2023-01-15T05:35:23.425Z,1.30
2023-01-15T05:37:54.670Z,1.57
2023-01-15T05:40:26.032Z,1.33
2023-01-15T05:42:57.470Z,1.40
2023-01-15T05:45:28.743Z,2.37
2023-01-15T05:48:00.015Z,1.20
2023-01-15T05:50:31.300Z,1.60
2023-01-15T05:53:03.042Z,2.00
2023-01-15T05:55:34.315Z,1.30
2023-01-15T05:58:05.589Z,1.80
2023-01-15T06:00:36.861Z,1.50
2023-01-15T06:03:08.144Z,1.60
2023-01-15T06:05:39.418Z,1.30
2023-01-15T06:08:10.713Z,1.43
2023-01-15T06:10:45.041Z,1.30
2023-01-15T06:13:17.521Z,1.53
2023-01-15T06:15:48.817Z,1.10
2023-01-15T06:18:20.203Z,1.53
2023-01-15T06:20:51.569Z,1.33
2023-01-15T06:23:22.920Z,1.40
2023-01-15T06:25:54.224Z,1.10
2023-01-15T06:28:25.521Z,1.33
2023-01-15T06:30:57.110Z,1.63
2023-01-15T06:33:28.429Z,1.40
2023-01-15T06:36:04.020Z,1.87
2023-01-15T06:38:35.336Z,2.08
2023-01-15T06:41:29.718Z,1.13
2023-01-15T06:44:19.946Z,2.07
2023-01-15T06:47:10.751Z,1.83
2023-01-15T06:49:42.061Z,1.50
2023-01-15T06:52:13.418Z,1.23
2023-01-15T06:54:44.707Z,1.40
2023-01-15T06:57:16.050Z,1.40
2023-01-15T06:59:50.956Z,1.90
2023-01-15T07:02:22.385Z,1.37
2023-01-15T07:04:53.690Z,1.57
2023-01-15T07:07:25.168Z,1.30
2023-01-15T07:09:56.441Z,1.73
2023-01-15T07:12:27.755Z,1.40
2023-01-15T07:14:59.031Z,1.40
2023-01-15T07:17:30.316Z,2.10
2023-01-15T07:20:01.596Z,1.37
2023-01-15T07:22:33.102Z,1.77
2023-01-15T07:25:04.919Z,1.67
2023-01-15T07:27:36.185Z,2.10
2023-01-15T07:30:08.353Z,2.30
2023-01-15T07:32:39.699Z,1.50
2023-01-15T07:35:11.051Z,1.50
2023-01-15T07:37:43.990Z,1.30
2023-01-15T07:40:15.340Z,1.57
2023-01-15T07:43:05.375Z,2.10
2023-01-15T07:45:58.111Z,1.83
2023-01-15T07:48:48.570Z,2.30
2023-01-15T07:51:19.855Z,1.90
2023-01-15T07:53:51.150Z,1.70
2023-01-15T07:56:22.443Z,1.80
2023-01-15T07:58:53.714Z,1.80
2023-01-15T08:01:25.088Z,1.30
2023-01-15T08:03:56.431Z,2.20
2023-01-15T08:06:27.711Z,2.07
2023-01-15T08:08:59.000Z,2.07
2023-01-15T08:11:49.127Z,1.00
2023-01-15T08:14:39.115Z,2.00
2023-01-15T08:17:10.396Z,1.40
2023-01-15T08:19:41.760Z,1.60
2023-01-15T08:22:13.056Z,1.17
2023-01-15T08:24:44.394Z,1.80
2023-01-15T08:27:15.783Z,1.87
2023-01-15T08:29:47.116Z,1.70
2023-01-15T08:32:18.413Z,2.13
2023-01-15T08:34:49.674Z,2.17
2023-01-15T08:37:21.480Z,1.33
2023-01-15T08:39:55.496Z,1.60
2023-01-15T08:42:28.256Z,1.73
2023-01-15T08:44:59.528Z,2.43
2023-01-15T08:47:32.379Z,1.63
2023-01-15T08:50:05.119Z,1.50
2023-01-15T08:52:38.556Z,1.40
2023-01-15T08:55:10.153Z,1.50
2023-01-15T08:57:41.479Z,1.37
2023-01-15T09:00:13.307Z,1.37
2023-01-15T09:02:44.569Z,1.13
2023-01-15T09:05:15.973Z,1.07
2023-01-15T09:07:47.363Z,1.47
2023-01-15T09:10:18.865Z,1.10
2023-01-15T09:12:50.166Z,1.97
2023-01-15T09:15:21.454Z,1.00
2023-01-15T09:17:52.894Z,1.53
2023-01-15T09:20:24.414Z,0.73
2023-01-15T09:22:55.705Z,1.00
2023-01-15T09:25:27.151Z,1.10
2023-01-15T09:27:58.496Z,1.00
2023-01-15T09:30:30.017Z,0.70
2023-01-15T09:33:01.380Z,0.90
2023-01-15T09:35:32.757Z,1.20
2023-01-15T09:38:04.249Z,1.13
2023-01-15T09:40:52.292Z,0.97
2023-01-15T09:44:08.802Z,0.77
2023-01-15T09:47:03.305Z,0.90
2023-01-15T09:49:45.238Z,1.33
2023-01-15T09:52:50.513Z,1.13
2023-01-15T09:55:29.193Z,1.27
2023-01-15T09:58:05.976Z,0.93
2023-01-15T10:00:40.841Z,1.50
2023-01-15T10:03:26.628Z,1.30
2023-01-15T10:06:21.221Z,1.17
2023-01-15T10:09:18.371Z,1.73
2023-01-15T10:12:15.743Z,1.23
2023-01-15T10:14:58.915Z,1.10
2023-01-15T10:17:47.574Z,1.63
2023-01-15T10:20:55.111Z,1.43
2023-01-15T10:23:36.572Z,2.03
2023-01-15T10:26:42.942Z,1.13
2023-01-15T10:29:36.976Z,1.00
2023-01-15T10:32:14.252Z,1.20
2023-01-15T10:35:17.178Z,1.33
2023-01-15T10:37:58.279Z,1.00
2023-01-15T10:40:43.003Z,1.17
2023-01-15T10:43:23.280Z,2.10
2023-01-15T10:46:01.507Z,0.90
2023-01-15T10:48:46.699Z,1.00
2023-01-15T10:51:23.809Z,0.80
2023-01-15T10:54:00.813Z,1.50
2023-01-15T10:56:37.335Z,0.87
2023-01-15T10:59:16.545Z,1.77
2023-01-15T11:01:52.475Z,1.80
2023-01-15T11:04:26.800Z,1.40
2023-01-15T11:07:00.628Z,1.30
2023-01-15T11:09:34.641Z,1.00
2023-01-15T11:12:27.951Z,1.27
2023-01-15T11:15:17.968Z,1.00
2023-01-15T11:18:08.337Z,1.83
2023-01-15T11:20:44.920Z,1.27
2023-01-15T11:23:19.745Z,1.17
2023-01-15T11:25:57.564Z,1.00
2023-01-15T11:28:39.941Z,1.27
2023-01-15T11:31:12.656Z,0.93
2023-01-15T11:33:55.627Z,1.50
2023-01-15T11:36:28.272Z,1.20
2023-01-15T11:38:59.697Z,1.17
2023-01-15T11:41:52.246Z,1.27
2023-01-15T11:44:42.227Z,1.90
2023-01-15T11:47:35.875Z,1.30
2023-01-15T11:50:37.150Z,1.47
2023-01-15T11:53:18.448Z,1.40
2023-01-15T11:55:52.377Z,1.40
2023-01-15T11:58:24.916Z,1.77
2023-01-15T12:00:59.865Z,1.57
2023-01-15T12:03:36.234Z,1.43
2023-01-15T12:06:10.840Z,1.80
2023-01-15T12:08:55.926Z,1.47
2023-01-15T12:11:47.562Z,2.00
2023-01-15T12:14:57.692Z,1.47
2023-01-15T12:17:54.719Z,1.30
2023-01-15T12:21:05.163Z,2.60
2023-01-15T12:23:56.659Z,1.83
2023-01-15T12:26:34.614Z,1.50
2023-01-15T12:29:24.270Z,2.07
2023-01-15T12:32:03.045Z,1.40
2023-01-15T12:34:52.859Z,1.70
2023-01-15T12:37:29.643Z,1.50
2023-01-15T12:40:18.668Z,2.57
2023-01-15T12:43:12.134Z,1.60
2023-01-15T12:45:52.201Z,1.73
2023-01-15T12:49:04.844Z,1.87
2023-01-15T12:52:04.488Z,1.60
2023-01-15T12:54:44.692Z,1.80
2023-01-15T12:57:21.577Z,2.03
2023-01-15T13:00:00.839Z,1.40
2023-01-15T13:02:53.338Z,1.90
2023-01-15T13:05:47.673Z,1.67
2023-01-15T13:08:56.807Z,1.50
2023-01-15T13:11:28.135Z,1.87
2023-01-15T13:13:59.585Z,1.93
2023-01-15T13:17:06.298Z,2.13
2023-01-15T13:19:59.462Z,1.40
2023-01-15T13:22:36.522Z,1.63
2023-01-15T13:25:27.239Z,1.83
2023-01-15T13:28:18.538Z,1.47
2023-01-15T13:31:14.280Z,1.53
2023-01-15T13:33:58.217Z,1.40
2023-01-15T13:36:40.471Z,1.10
2023-01-15T13:39:18.863Z,1.20
2023-01-15T13:42:12.221Z,1.40
2023-01-15T13:44:52.895Z,1.10
2023-01-15T13:47:26.908Z,1.20
2023-01-15T13:50:04.595Z,1.60
2023-01-15T13:52:37.114Z,1.30
2023-01-15T13:55:32.791Z,1.47
2023-01-15T13:58:21.275Z,1.30
2023-01-15T14:01:09.005Z,1.90
2023-01-15T14:03:40.586Z,1.57
2023-01-15T14:06:11.860Z,1.50
2023-01-15T14:08:44.999Z,2.30
2023-01-15T14:11:36.952Z,1.57
2023-01-15T14:14:29.683Z,2.47
2023-01-15T14:17:35.047Z,1.57
2023-01-15T14:20:40.849Z,1.27
2023-01-15T14:23:30.244Z,1.10
2023-01-15T14:26:24.739Z,1.67
2023-01-15T14:29:26.037Z,1.67
2023-01-15T14:32:28.633Z,1.50
2023-01-15T14:35:01.940Z,2.13
2023-01-15T14:37:44.385Z,1.63
2023-01-15T14:40:27.974Z,1.20
2023-01-15T14:43:07.625Z,1.40
2023-01-15T14:45:44.894Z,1.13
2023-01-15T14:48:28.478Z,1.10
2023-01-15T14:51:24.636Z,0.80
2023-01-15T14:54:01.144Z,1.43
2023-01-15T14:56:40.619Z,1.20
2023-01-15T14:59:25.953Z,1.17
2023-01-15T15:02:02.424Z,1.30
2023-01-15T15:04:40.490Z,0.90
2023-01-15T15:07:18.529Z,0.93
2023-01-15T15:10:04.658Z,1.20
2023-01-15T15:12:43.911Z,0.88
2023-01-15T15:15:39.302Z,2.07
2023-01-15T15:18:36.213Z,1.57
2023-01-15T15:21:19.909Z,1.48
2023-01-15T15:24:16.686Z,1.10
2023-01-15T15:26:48.103Z,2.15
2023-01-15T15:29:21.838Z,1.60
2023-01-15T15:31:57.003Z,1.47
2023-01-15T15:34:40.371Z,1.90
2023-01-15T15:37:24.734Z,1.00
2023-01-15T15:40:04.995Z,1.20
2023-01-15T15:43:04.325Z,1.57
2023-01-15T15:45:53.993Z,1.53
2023-01-15T15:48:43.230Z,1.00
2023-01-15T15:51:34.367Z,1.20
2023-01-15T15:54:12.010Z,1.30
2023-01-15T15:56:58.550Z,1.23
2023-01-15T15:59:37.947Z,1.10
2023-01-15T16:02:21.278Z,0.73
2023-01-15T16:04:55.155Z,0.97
2023-01-15T16:07:33.389Z,1.10
2023-01-15T16:10:34.960Z,1.37
2023-01-15T16:13:12.313Z,1.40
2023-01-15T16:15:43.937Z,1.03
2023-01-15T16:18:23.995Z,1.13
2023-01-15T16:20:56.836Z,1.50
2023-01-15T16:23:30.188Z,1.30
2023-01-15T16:26:19.800Z,1.20
2023-01-15T16:28:55.132Z,1.20
2023-01-15T16:31:28.523Z,1.65
2023-01-15T16:34:00.054Z,1.47
2023-01-15T16:36:41.238Z,1.33
2023-01-15T16:39:30.726Z,1.03
2023-01-15T16:42:02.200Z,1.10
2023-01-15T16:44:46.687Z,1.20
2023-01-15T16:47:24.133Z,1.00
2023-01-15T16:50:26.246Z,1.27
2023-01-15T16:53:02.316Z,1.20
2023-01-15T16:55:33.637Z,1.20
2023-01-15T16:58:14.104Z,1.60
2023-01-15T17:00:51.792Z,1.10
2023-01-15T17:03:27.957Z,1.47
2023-01-15T17:06:05.786Z,0.90
2023-01-15T17:08:39.189Z,1.03
2023-01-15T17:11:25.717Z,1.20
2023-01-15T17:14:20.519Z,1.02
2023-01-15T17:17:27.667Z,1.90
2023-01-15T17:19:59.077Z,1.60
2023-01-15T17:22:33.049Z,1.80
2023-01-15T17:25:20.616Z,1.47
2023-01-15T17:27:55.914Z,1.50
2023-01-15T17:30:31.758Z,1.45
2023-01-15T17:33:07.384Z,1.83
2023-01-15T17:35:41.147Z,1.17
2023-01-15T17:38:13.777Z,1.30
2023-01-15T17:40:45.627Z,1.40
2023-01-15T17:43:17.056Z,1.73
2023-01-15T17:45:48.631Z,1.50
2023-01-15T17:48:20.236Z,1.20
2023-01-15T17:50:51.866Z,1.10
2023-01-15T17:53:23.327Z,1.10
2023-01-15T17:56:13.270Z,1.53
2023-01-15T17:59:03.054Z,1.40
2023-01-15T18:01:57.976Z,1.50
2023-01-15T18:04:54.134Z,1.17
2023-01-15T18:07:33.555Z,1.50
2023-01-15T18:10:07.578Z,1.70
2023-01-15T18:12:38.933Z,1.37
2023-01-15T18:15:10.791Z,1.53
2023-01-15T18:17:42.952Z,1.10
2023-01-15T18:20:14.435Z,1.30
2023-01-15T18:22:45.896Z,1.33
2023-01-15T18:25:17.495Z,1.53
2023-01-15T18:27:50.093Z,1.80
2023-01-15T18:30:21.531Z,1.50
2023-01-15T18:32:52.954Z,1.20
2023-01-15T18:35:24.323Z,1.30
2023-01-15T18:37:56.301Z,1.70
2023-01-15T18:40:30.533Z,1.30
2023-01-15T18:43:20.424Z,1.20
2023-01-15T18:46:10.321Z,1.30
2023-01-15T18:48:41.621Z,1.40
2023-01-15T18:51:12.996Z,1.10
2023-01-15T18:53:44.334Z,0.80
2023-01-15T18:56:35.592Z,1.20
2023-01-15T18:59:09.241Z,1.30
2023-01-15T19:01:42.141Z,1.20
2023-01-15T19:04:13.594Z,1.10
2023-01-15T19:06:45.017Z,1.57
2023-01-15T19:09:17.768Z,1.60
2023-01-15T19:11:50.155Z,1.37
2023-01-15T19:14:40.923Z,1.30
2023-01-15T19:17:36.442Z,1.30
2023-01-15T19:20:09.873Z,1.40
2023-01-15T19:22:59.321Z,1.37
2023-01-15T19:25:42.268Z,1.40
2023-01-15T19:28:16.337Z,1.30
2023-01-15T19:31:07.616Z,1.80
2023-01-15T19:33:38.994Z,1.80
2023-01-15T19:36:10.265Z,1.63
2023-01-15T19:38:41.767Z,1.67
2023-01-15T19:41:32.161Z,1.40
2023-01-15T19:44:22.079Z,1.37
2023-01-15T19:47:12.533Z,1.53
2023-01-15T19:50:02.351Z,1.30
2023-01-15T19:52:36.686Z,1.17
2023-01-15T19:55:14.862Z,1.50
2023-01-15T19:57:49.138Z,1.23
2023-01-15T20:00:22.106Z,1.17
2023-01-15T20:02:54.628Z,1.33
2023-01-15T20:05:28.953Z,1.23
2023-01-15T20:08:00.400Z,1.03
2023-01-15T20:10:34.157Z,1.57
2023-01-15T20:13:24.135Z,1.40
2023-01-15T20:15:55.413Z,1.50
2023-01-15T20:18:27.865Z,1.53
2023-01-15T20:20:59.212Z,1.33
2023-01-15T20:23:30.644Z,1.50
2023-01-15T20:26:07.104Z,1.40
2023-01-15T20:28:40.793Z,1.37
2023-01-15T20:31:17.964Z,1.33
2023-01-15T20:33:50.120Z,1.40
2023-01-15T20:36:21.501Z,1.47
2023-01-15T20:38:52.901Z,1.30
2023-01-15T20:41:42.734Z,1.60
2023-01-15T20:44:32.804Z,1.50
2023-01-15T20:47:24.075Z,1.57
2023-01-15T20:49:55.364Z,2.00
2023-01-15T20:52:26.645Z,1.30
2023-01-15T20:54:57.915Z,2.50
2023-01-15T20:57:29.254Z,1.50
2023-01-15T21:00:04.598Z,1.40
2023-01-15T21:02:35.919Z,1.50
2023-01-15T21:05:08.289Z,1.60
2023-01-15T21:07:39.717Z,1.63
2023-01-15T21:10:12.842Z,1.63
2023-01-15T21:12:44.500Z,1.33
2023-01-15T21:15:15.961Z,1.53
2023-01-15T21:17:47.684Z,1.97
2023-01-15T21:20:19.047Z,1.70
2023-01-15T21:22:50.414Z,2.13
2023-01-15T21:25:21.720Z,1.73
2023-01-15T21:27:53.032Z,1.67
2023-01-15T21:30:25.622Z,2.00
2023-01-15T21:32:56.915Z,2.30
2023-01-15T21:35:28.194Z,2.13
2023-01-15T21:37:59.605Z,2.30
2023-01-15T21:40:30.959Z,2.17
2023-01-15T21:43:20.735Z,2.33
2023-01-15T21:45:52.164Z,1.87
2023-01-15T21:48:23.462Z,2.00
2023-01-15T21:50:54.790Z,1.67
2023-01-15T21:53:26.071Z,2.23
2023-01-15T21:55:57.347Z,2.43
2023-01-15T21:58:28.636Z,2.40
2023-01-15T22:00:59.974Z,2.20
2023-01-15T22:03:31.254Z,1.97
2023-01-15T22:06:07.431Z,1.70
2023-01-15T22:08:38.732Z,2.30
2023-01-15T22:11:10.498Z,1.67
2023-01-15T22:13:41.857Z,1.70
2023-01-15T22:16:13.194Z,1.67
2023-01-15T22:18:45.394Z,1.47
2023-01-15T22:21:16.672Z,1.60
2023-01-15T22:23:49.173Z,1.77
2023-01-15T22:26:22.009Z,1.67
2023-01-15T22:28:53.411Z,1.60
2023-01-15T22:31:26.723Z,1.90
2023-01-15T22:33:58.321Z,1.83
2023-01-15T22:36:29.651Z,1.80
2023-01-15T22:39:01.502Z,2.30
2023-01-15T22:41:51.711Z,2.40
2023-01-15T22:44:22.997Z,2.23
2023-01-15T22:46:54.483Z,2.77
2023-01-15T22:49:25.838Z,2.70
2023-01-15T22:51:57.206Z,2.60
2023-01-15T22:54:28.512Z,2.50
2023-01-15T22:56:59.809Z,3.00
2023-01-15T22:59:31.083Z,3.30
2023-01-15T23:02:02.567Z,2.60
2023-01-15T23:04:34.057Z,2.67
2023-01-15T23:07:05.541Z,2.63
2023-01-15T23:09:37.025Z,2.50
2023-01-15T23:12:08.322Z,3.20
2023-01-15T23:14:39.732Z,3.10
2023-01-15T23:17:11.009Z,3.23
2023-01-15T23:19:42.279Z,3.37
2023-01-15T23:22:13.703Z,3.57
2023-01-15T23:24:45.005Z,2.60
2023-01-15T23:27:16.354Z,3.10
2023-01-15T23:29:47.936Z,2.77
2023-01-15T23:32:19.244Z,3.67
2023-01-15T23:34:50.721Z,2.70
2023-01-15T23:37:21.983Z,3.53
2023-01-15T23:39:53.247Z,2.33
2023-01-15T23:42:44.770Z,2.60
2023-01-15T23:45:34.517Z,2.70
2023-01-15T23:48:06.231Z,3.00
2023-01-15T23:50:37.492Z,2.63
2023-01-15T23:53:08.776Z,2.40
2023-01-15T23:55:40.084Z,1.90
2023-01-15T23:58:11.357Z,2.30
